sensor_id;sensor_type;location;lat;lon;timestamp;P1;durP1;ratioP1;P2;durP2;ratioP2
55776;SDS011;54079;44.540;18.784;2023-12-07T00:02:16;31.85;;;19.67;;
55776;SDS011;54079;44.540;18.784;2023-12-07T00:04:42;26.63;;;17.02;;
55776;SDS011;54079;44.540;18.784;2023-12-07T00:07:08;27.38;;;18.00;;
55776;SDS011;54079;44.540;18.784;2023-12-07T00:09:34;26.10;;;16.98;;
55776;SDS011;54079;44.540;18.784;2023-12-07T00:12:00;28.98;;;17.77;;
55776;SDS011;54079;44.540;18.784;2023-12-07T00:14:26;27.20;;;15.65;;
55776;SDS011;54079;44.540;18.784;2023-12-07T00:16:52;26.23;;;16.77;;
55776;SDS011;54079;44.540;18.784;2023-12-07T00:19:18;29.55;;;19.00;;
55776;SDS011;54079;44.540;18.784;2023-12-07T00:21:44;24.42;;;16.15;;
55776;SDS011;54079;44.540;18.784;2023-12-07T00:24:10;29.13;;;18.35;;
55776;SDS011;54079;44.540;18.784;2023-12-07T00:26:36;29.65;;;18.70;;
55776;SDS011;54079;44.540;18.784;2023-12-07T00:29:03;32.38;;;20.35;;
55776;SDS011;54079;44.540;18.784;2023-12-07T00:31:29;29.30;;;18.75;;
55776;SDS011;54079;44.540;18.784;2023-12-07T00:33:55;24.13;;;15.50;;
55776;SDS011;54079;44.540;18.784;2023-12-07T00:36:21;22.00;;;15.70;;
55776;SDS011;54079;44.540;18.784;2023-12-07T00:38:47;25.30;;;15.15;;
55776;SDS011;54079;44.540;18.784;2023-12-07T00:41:13;27.00;;;15.55;;
55776;SDS011;54079;44.540;18.784;2023-12-07T00:43:39;23.23;;;16.02;;
55776;SDS011;54079;44.540;18.784;2023-12-07T00:46:07;30.85;;;16.92;;
55776;SDS011;54079;44.540;18.784;2023-12-07T00:48:33;27.23;;;17.25;;
55776;SDS011;54079;44.540;18.784;2023-12-07T00:50:59;24.88;;;15.98;;
55776;SDS011;54079;44.540;18.784;2023-12-07T00:53:24;28.02;;;17.70;;
55776;SDS011;54079;44.540;18.784;2023-12-07T00:55:50;25.48;;;17.73;;
55776;SDS011;54079;44.540;18.784;2023-12-07T00:58:16;24.65;;;16.23;;
55776;SDS011;54079;44.540;18.784;2023-12-07T01:00:42;30.70;;;18.73;;
55776;SDS011;54079;44.540;18.784;2023-12-07T01:03:09;26.88;;;15.70;;
55776;SDS011;54079;44.540;18.784;2023-12-07T01:05:35;22.40;;;15.32;;
55776;SDS011;54079;44.540;18.784;2023-12-07T01:08:01;26.90;;;16.63;;
55776;SDS011;54079;44.540;18.784;2023-12-07T01:10:27;26.40;;;16.55;;
55776;SDS011;54079;44.540;18.784;2023-12-07T01:12:53;20.42;;;13.52;;
55776;SDS011;54079;44.540;18.784;2023-12-07T01:15:19;27.52;;;17.73;;
55776;SDS011;54079;44.540;18.784;2023-12-07T01:17:45;28.98;;;19.20;;
55776;SDS011;54079;44.540;18.784;2023-12-07T01:20:11;25.77;;;16.98;;
55776;SDS011;54079;44.540;18.784;2023-12-07T01:22:41;26.00;;;17.92;;
55776;SDS011;54079;44.540;18.784;2023-12-07T01:25:07;27.75;;;17.48;;
55776;SDS011;54079;44.540;18.784;2023-12-07T01:27:33;26.15;;;15.55;;
55776;SDS011;54079;44.540;18.784;2023-12-07T01:30:00;26.38;;;15.90;;
55776;SDS011;54079;44.540;18.784;2023-12-07T01:32:26;23.00;;;15.80;;
55776;SDS011;54079;44.540;18.784;2023-12-07T01:34:51;25.90;;;16.48;;
55776;SDS011;54079;44.540;18.784;2023-12-07T01:37:17;23.63;;;15.48;;
55776;SDS011;54079;44.540;18.784;2023-12-07T01:39:43;23.42;;;15.13;;
55776;SDS011;54079;44.540;18.784;2023-12-07T01:42:09;21.75;;;13.98;;
55776;SDS011;54079;44.540;18.784;2023-12-07T01:44:37;22.75;;;15.20;;
55776;SDS011;54079;44.540;18.784;2023-12-07T01:47:04;20.98;;;13.27;;
55776;SDS011;54079;44.540;18.784;2023-12-07T01:49:33;21.70;;;14.93;;
55776;SDS011;54079;44.540;18.784;2023-12-07T01:52:01;20.98;;;14.23;;
55776;SDS011;54079;44.540;18.784;2023-12-07T01:54:28;27.23;;;17.60;;
55776;SDS011;54079;44.540;18.784;2023-12-07T01:56:54;21.77;;;14.70;;
55776;SDS011;54079;44.540;18.784;2023-12-07T01:59:21;26.00;;;17.77;;
55776;SDS011;54079;44.540;18.784;2023-12-07T02:01:47;22.35;;;15.40;;
55776;SDS011;54079;44.540;18.784;2023-12-07T02:04:13;24.05;;;16.25;;
55776;SDS011;54079;44.540;18.784;2023-12-07T02:06:39;26.67;;;17.23;;
55776;SDS011;54079;44.540;18.784;2023-12-07T02:09:05;20.40;;;14.52;;
55776;SDS011;54079;44.540;18.784;2023-12-07T02:11:32;23.77;;;14.93;;
55776;SDS011;54079;44.540;18.784;2023-12-07T02:13:58;21.98;;;14.95;;
55776;SDS011;54079;44.540;18.784;2023-12-07T02:16:29;25.23;;;16.00;;
55776;SDS011;54079;44.540;18.784;2023-12-07T02:19:43;26.83;;;16.90;;
55776;SDS011;54079;44.540;18.784;2023-12-07T02:22:07;20.10;;;14.75;;
55776;SDS011;54079;44.540;18.784;2023-12-07T02:24:38;27.67;;;16.52;;
55776;SDS011;54079;44.540;18.784;2023-12-07T02:27:13;21.90;;;15.73;;
55776;SDS011;54079;44.540;18.784;2023-12-07T02:29:39;23.70;;;16.50;;
55776;SDS011;54079;44.540;18.784;2023-12-07T02:32:05;25.45;;;16.55;;
55776;SDS011;54079;44.540;18.784;2023-12-07T02:34:31;24.25;;;17.80;;
55776;SDS011;54079;44.540;18.784;2023-12-07T02:36:57;28.98;;;20.13;;
55776;SDS011;54079;44.540;18.784;2023-12-07T02:39:26;29.38;;;20.17;;
55776;SDS011;54079;44.540;18.784;2023-12-07T02:41:52;30.55;;;19.67;;
55776;SDS011;54079;44.540;18.784;2023-12-07T02:44:19;29.85;;;20.45;;
55776;SDS011;54079;44.540;18.784;2023-12-07T02:46:45;28.58;;;21.00;;
55776;SDS011;54079;44.540;18.784;2023-12-07T02:49:11;25.65;;;19.23;;
55776;SDS011;54079;44.540;18.784;2023-12-07T02:51:37;29.92;;;20.70;;
55776;SDS011;54079;44.540;18.784;2023-12-07T02:54:03;28.27;;;18.60;;
55776;SDS011;54079;44.540;18.784;2023-12-07T02:56:29;28.85;;;20.02;;
55776;SDS011;54079;44.540;18.784;2023-12-07T02:58:54;28.88;;;19.25;;
55776;SDS011;54079;44.540;18.784;2023-12-07T03:01:20;28.33;;;17.45;;
55776;SDS011;54079;44.540;18.784;2023-12-07T03:03:46;30.55;;;20.98;;
55776;SDS011;54079;44.540;18.784;2023-12-07T03:06:12;26.65;;;18.83;;
55776;SDS011;54079;44.540;18.784;2023-12-07T03:08:38;26.63;;;19.13;;
55776;SDS011;54079;44.540;18.784;2023-12-07T03:11:04;26.27;;;18.92;;
55776;SDS011;54079;44.540;18.784;2023-12-07T03:13:30;27.52;;;18.88;;
55776;SDS011;54079;44.540;18.784;2023-12-07T03:15:56;28.83;;;21.35;;
55776;SDS011;54079;44.540;18.784;2023-12-07T03:18:22;26.70;;;18.52;;
55776;SDS011;54079;44.540;18.784;2023-12-07T03:20:49;24.42;;;16.83;;
55776;SDS011;54079;44.540;18.784;2023-12-07T03:23:15;23.60;;;17.27;;
55776;SDS011;54079;44.540;18.784;2023-12-07T03:25:42;28.42;;;20.35;;
55776;SDS011;54079;44.540;18.784;2023-12-07T03:28:08;24.48;;;17.50;;
55776;SDS011;54079;44.540;18.784;2023-12-07T03:30:34;24.55;;;16.42;;
55776;SDS011;54079;44.540;18.784;2023-12-07T03:33:00;21.33;;;16.27;;
55776;SDS011;54079;44.540;18.784;2023-12-07T03:35:25;23.92;;;16.15;;
55776;SDS011;54079;44.540;18.784;2023-12-07T03:37:51;23.05;;;15.70;;
55776;SDS011;54079;44.540;18.784;2023-12-07T03:40:17;22.02;;;16.30;;
55776;SDS011;54079;44.540;18.784;2023-12-07T03:42:43;18.83;;;13.55;;
55776;SDS011;54079;44.540;18.784;2023-12-07T03:45:09;16.83;;;12.52;;
55776;SDS011;54079;44.540;18.784;2023-12-07T03:47:35;19.42;;;12.90;;
55776;SDS011;54079;44.540;18.784;2023-12-07T03:50:02;21.80;;;12.82;;
55776;SDS011;54079;44.540;18.784;2023-12-07T03:52:28;17.83;;;12.07;;
55776;SDS011;54079;44.540;18.784;2023-12-07T03:54:54;15.50;;;11.13;;
55776;SDS011;54079;44.540;18.784;2023-12-07T03:57:20;18.40;;;12.38;;
55776;SDS011;54079;44.540;18.784;2023-12-07T03:59:46;16.48;;;12.05;;
55776;SDS011;54079;44.540;18.784;2023-12-07T04:02:12;18.17;;;11.93;;
55776;SDS011;54079;44.540;18.784;2023-12-07T04:04:38;17.55;;;11.63;;
55776;SDS011;54079;44.540;18.784;2023-12-07T04:07:03;16.25;;;11.70;;
55776;SDS011;54079;44.540;18.784;2023-12-07T04:09:29;15.45;;;11.07;;
55776;SDS011;54079;44.540;18.784;2023-12-07T04:11:56;14.70;;;10.82;;
55776;SDS011;54079;44.540;18.784;2023-12-07T04:14:22;15.73;;;10.23;;
55776;SDS011;54079;44.540;18.784;2023-12-07T04:16:47;14.52;;;10.15;;
55776;SDS011;54079;44.540;18.784;2023-12-07T04:19:13;15.35;;;10.07;;
55776;SDS011;54079;44.540;18.784;2023-12-07T04:21:39;13.73;;;9.65;;
55776;SDS011;54079;44.540;18.784;2023-12-07T04:24:05;14.38;;;9.80;;
55776;SDS011;54079;44.540;18.784;2023-12-07T04:26:31;16.83;;;13.15;;
55776;SDS011;54079;44.540;18.784;2023-12-07T04:28:57;14.35;;;10.23;;
55776;SDS011;54079;44.540;18.784;2023-12-07T04:31:23;14.23;;;10.32;;
55776;SDS011;54079;44.540;18.784;2023-12-07T04:33:49;16.38;;;10.32;;
55776;SDS011;54079;44.540;18.784;2023-12-07T04:36:15;12.57;;;8.55;;
55776;SDS011;54079;44.540;18.784;2023-12-07T04:38:41;13.88;;;9.20;;
55776;SDS011;54079;44.540;18.784;2023-12-07T04:41:07;17.00;;;11.35;;
55776;SDS011;54079;44.540;18.784;2023-12-07T04:43:33;14.00;;;10.30;;
55776;SDS011;54079;44.540;18.784;2023-12-07T04:45:59;12.52;;;9.15;;
55776;SDS011;54079;44.540;18.784;2023-12-07T04:48:25;13.68;;;8.98;;
55776;SDS011;54079;44.540;18.784;2023-12-07T04:50:51;15.60;;;9.15;;
55776;SDS011;54079;44.540;18.784;2023-12-07T04:53:17;14.05;;;9.95;;
55776;SDS011;54079;44.540;18.784;2023-12-07T04:55:43;12.02;;;8.18;;
55776;SDS011;54079;44.540;18.784;2023-12-07T04:58:13;13.88;;;8.90;;
55776;SDS011;54079;44.540;18.784;2023-12-07T05:00:41;12.48;;;8.88;;
55776;SDS011;54079;44.540;18.784;2023-12-07T05:03:06;10.48;;;8.10;;
55776;SDS011;54079;44.540;18.784;2023-12-07T05:05:33;10.05;;;7.20;;
55776;SDS011;54079;44.540;18.784;2023-12-07T05:07:59;11.68;;;8.55;;
55776;SDS011;54079;44.540;18.784;2023-12-07T05:10:25;12.70;;;8.48;;
55776;SDS011;54079;44.540;18.784;2023-12-07T05:12:51;11.52;;;7.85;;
55776;SDS011;54079;44.540;18.784;2023-12-07T05:15:17;13.63;;;9.48;;
55776;SDS011;54079;44.540;18.784;2023-12-07T05:17:43;11.70;;;8.27;;
55776;SDS011;54079;44.540;18.784;2023-12-07T05:20:09;10.77;;;7.88;;
55776;SDS011;54079;44.540;18.784;2023-12-07T05:22:37;11.93;;;7.28;;
55776;SDS011;54079;44.540;18.784;2023-12-07T05:25:03;10.35;;;7.55;;
55776;SDS011;54079;44.540;18.784;2023-12-07T05:27:30;12.25;;;8.70;;
55776;SDS011;54079;44.540;18.784;2023-12-07T05:29:56;11.13;;;7.50;;
55776;SDS011;54079;44.540;18.784;2023-12-07T05:32:22;12.73;;;7.43;;
55776;SDS011;54079;44.540;18.784;2023-12-07T05:34:48;11.07;;;7.88;;
55776;SDS011;54079;44.540;18.784;2023-12-07T05:37:15;10.35;;;7.70;;
55776;SDS011;54079;44.540;18.784;2023-12-07T05:39:41;10.98;;;8.05;;
55776;SDS011;54079;44.540;18.784;2023-12-07T05:42:07;10.48;;;7.80;;
55776;SDS011;54079;44.540;18.784;2023-12-07T05:44:33;12.30;;;7.80;;
55776;SDS011;54079;44.540;18.784;2023-12-07T05:46:59;11.57;;;7.22;;
55776;SDS011;54079;44.540;18.784;2023-12-07T05:49:25;8.38;;;6.57;;
55776;SDS011;54079;44.540;18.784;2023-12-07T05:51:52;9.18;;;6.97;;
55776;SDS011;54079;44.540;18.784;2023-12-07T05:54:18;9.65;;;7.05;;
55776;SDS011;54079;44.540;18.784;2023-12-07T05:56:47;10.52;;;7.07;;
55776;SDS011;54079;44.540;18.784;2023-12-07T05:59:13;10.68;;;8.23;;
55776;SDS011;54079;44.540;18.784;2023-12-07T06:01:39;9.18;;;6.43;;
55776;SDS011;54079;44.540;18.784;2023-12-07T06:04:08;13.55;;;8.57;;
55776;SDS011;54079;44.540;18.784;2023-12-07T06:06:34;11.82;;;8.70;;
55776;SDS011;54079;44.540;18.784;2023-12-07T06:09:01;11.95;;;8.18;;
55776;SDS011;54079;44.540;18.784;2023-12-07T06:11:27;12.30;;;8.30;;
55776;SDS011;54079;44.540;18.784;2023-12-07T06:13:53;13.18;;;10.15;;
55776;SDS011;54079;44.540;18.784;2023-12-07T06:16:20;17.35;;;12.15;;
55776;SDS011;54079;44.540;18.784;2023-12-07T06:18:46;21.50;;;12.27;;
55776;SDS011;54079;44.540;18.784;2023-12-07T06:21:13;27.73;;;15.73;;
55776;SDS011;54079;44.540;18.784;2023-12-07T06:23:39;32.58;;;16.65;;
55776;SDS011;54079;44.540;18.784;2023-12-07T06:26:06;49.45;;;20.63;;
55776;SDS011;54079;44.540;18.784;2023-12-07T06:28:32;38.38;;;20.73;;
55776;SDS011;54079;44.540;18.784;2023-12-07T06:31:04;27.48;;;16.70;;
55776;SDS011;54079;44.540;18.784;2023-12-07T06:33:31;24.67;;;16.95;;
55776;SDS011;54079;44.540;18.784;2023-12-07T06:35:57;17.90;;;12.23;;
55776;SDS011;54079;44.540;18.784;2023-12-07T06:38:23;17.77;;;12.57;;
55776;SDS011;54079;44.540;18.784;2023-12-07T06:40:49;16.33;;;10.65;;
55776;SDS011;54079;44.540;18.784;2023-12-07T06:43:15;13.88;;;8.77;;
55776;SDS011;54079;44.540;18.784;2023-12-07T06:45:41;12.55;;;9.00;;
55776;SDS011;54079;44.540;18.784;2023-12-07T06:48:07;17.63;;;10.80;;
55776;SDS011;54079;44.540;18.784;2023-12-07T06:50:33;17.75;;;12.48;;
55776;SDS011;54079;44.540;18.784;2023-12-07T06:52:59;15.15;;;10.63;;
55776;SDS011;54079;44.540;18.784;2023-12-07T06:55:25;21.27;;;13.90;;
55776;SDS011;54079;44.540;18.784;2023-12-07T06:57:51;21.10;;;13.85;;
55776;SDS011;54079;44.540;18.784;2023-12-07T07:00:17;16.70;;;10.63;;
55776;SDS011;54079;44.540;18.784;2023-12-07T07:02:45;15.55;;;11.50;;
55776;SDS011;54079;44.540;18.784;2023-12-07T07:05:11;14.65;;;10.07;;
55776;SDS011;54079;44.540;18.784;2023-12-07T07:07:37;13.85;;;9.68;;
55776;SDS011;54079;44.540;18.784;2023-12-07T07:10:03;12.18;;;8.60;;
55776;SDS011;54079;44.540;18.784;2023-12-07T07:12:30;11.13;;;8.93;;
55776;SDS011;54079;44.540;18.784;2023-12-07T07:14:56;12.82;;;8.27;;
55776;SDS011;54079;44.540;18.784;2023-12-07T07:17:22;14.23;;;9.52;;
55776;SDS011;54079;44.540;18.784;2023-12-07T07:19:48;18.52;;;12.65;;
55776;SDS011;54079;44.540;18.784;2023-12-07T07:22:14;17.52;;;12.43;;
55776;SDS011;54079;44.540;18.784;2023-12-07T07:24:40;20.88;;;12.73;;
55776;SDS011;54079;44.540;18.784;2023-12-07T07:27:06;16.90;;;11.82;;
55776;SDS011;54079;44.540;18.784;2023-12-07T07:29:32;19.08;;;12.38;;
55776;SDS011;54079;44.540;18.784;2023-12-07T07:31:58;13.07;;;10.13;;
55776;SDS011;54079;44.540;18.784;2023-12-07T07:34:23;14.57;;;10.65;;
55776;SDS011;54079;44.540;18.784;2023-12-07T07:36:50;15.52;;;10.05;;
55776;SDS011;54079;44.540;18.784;2023-12-07T07:39:16;13.57;;;10.10;;
55776;SDS011;54079;44.540;18.784;2023-12-07T07:41:42;12.07;;;8.10;;
55776;SDS011;54079;44.540;18.784;2023-12-07T07:44:08;17.80;;;10.23;;
55776;SDS011;54079;44.540;18.784;2023-12-07T07:46:34;18.80;;;12.40;;
55776;SDS011;54079;44.540;18.784;2023-12-07T07:49:00;18.23;;;12.75;;
55776;SDS011;54079;44.540;18.784;2023-12-07T07:51:26;21.48;;;14.15;;
55776;SDS011;54079;44.540;18.784;2023-12-07T07:53:52;15.50;;;10.70;;
55776;SDS011;54079;44.540;18.784;2023-12-07T07:56:18;24.70;;;15.90;;
55776;SDS011;54079;44.540;18.784;2023-12-07T07:58:44;24.40;;;17.42;;
55776;SDS011;54079;44.540;18.784;2023-12-07T08:01:11;24.50;;;16.17;;
55776;SDS011;54079;44.540;18.784;2023-12-07T08:03:37;23.73;;;14.88;;
55776;SDS011;54079;44.540;18.784;2023-12-07T08:06:03;20.88;;;12.52;;
55776;SDS011;54079;44.540;18.784;2023-12-07T08:08:29;18.38;;;12.05;;
55776;SDS011;54079;44.540;18.784;2023-12-07T08:10:55;19.20;;;13.07;;
55776;SDS011;54079;44.540;18.784;2023-12-07T08:13:21;12.60;;;9.50;;
55776;SDS011;54079;44.540;18.784;2023-12-07T08:15:47;15.95;;;10.10;;
55776;SDS011;54079;44.540;18.784;2023-12-07T08:18:13;17.23;;;10.88;;
55776;SDS011;54079;44.540;18.784;2023-12-07T08:20:39;12.85;;;9.55;;
55776;SDS011;54079;44.540;18.784;2023-12-07T08:23:05;17.25;;;10.95;;
55776;SDS011;54079;44.540;18.784;2023-12-07T08:25:31;14.73;;;9.40;;
55776;SDS011;54079;44.540;18.784;2023-12-07T08:27:57;18.15;;;10.88;;
55776;SDS011;54079;44.540;18.784;2023-12-07T08:30:23;15.35;;;10.55;;
55776;SDS011;54079;44.540;18.784;2023-12-07T08:32:49;24.17;;;14.65;;
55776;SDS011;54079;44.540;18.784;2023-12-07T08:35:15;19.08;;;12.70;;
55776;SDS011;54079;44.540;18.784;2023-12-07T08:37:41;19.55;;;12.32;;
55776;SDS011;54079;44.540;18.784;2023-12-07T08:40:07;21.10;;;12.15;;
55776;SDS011;54079;44.540;18.784;2023-12-07T08:42:36;20.27;;;12.95;;
55776;SDS011;54079;44.540;18.784;2023-12-07T08:45:02;27.10;;;15.80;;
55776;SDS011;54079;44.540;18.784;2023-12-07T08:47:28;33.80;;;19.15;;
55776;SDS011;54079;44.540;18.784;2023-12-07T08:49:55;22.50;;;12.48;;
55776;SDS011;54079;44.540;18.784;2023-12-07T08:52:21;30.17;;;19.02;;
55776;SDS011;54079;44.540;18.784;2023-12-07T08:54:47;33.00;;;21.25;;
55776;SDS011;54079;44.540;18.784;2023-12-07T08:57:13;30.70;;;18.67;;
55776;SDS011;54079;44.540;18.784;2023-12-07T08:59:39;31.20;;;19.67;;
55776;SDS011;54079;44.540;18.784;2023-12-07T09:02:05;35.90;;;22.02;;
55776;SDS011;54079;44.540;18.784;2023-12-07T09:04:31;33.67;;;20.90;;
55776;SDS011;54079;44.540;18.784;2023-12-07T09:06:57;31.20;;;20.25;;
55776;SDS011;54079;44.540;18.784;2023-12-07T09:09:23;30.30;;;18.60;;
55776;SDS011;54079;44.540;18.784;2023-12-07T09:11:50;58.72;;;15.23;;
55776;SDS011;54079;44.540;18.784;2023-12-07T09:14:16;29.00;;;18.55;;
55776;SDS011;54079;44.540;18.784;2023-12-07T09:16:43;21.30;;;13.90;;
55776;SDS011;54079;44.540;18.784;2023-12-07T09:19:10;24.25;;;15.95;;
55776;SDS011;54079;44.540;18.784;2023-12-07T09:21:37;25.52;;;15.55;;
55776;SDS011;54079;44.540;18.784;2023-12-07T09:24:04;23.98;;;13.32;;
55776;SDS011;54079;44.540;18.784;2023-12-07T09:26:31;27.23;;;17.38;;
55776;SDS011;54079;44.540;18.784;2023-12-07T09:28:58;23.77;;;15.40;;
55776;SDS011;54079;44.540;18.784;2023-12-07T09:31:24;28.85;;;19.25;;
55776;SDS011;54079;44.540;18.784;2023-12-07T09:33:50;28.77;;;18.58;;
55776;SDS011;54079;44.540;18.784;2023-12-07T09:36:18;30.23;;;19.73;;
55776;SDS011;54079;44.540;18.784;2023-12-07T09:38:44;25.95;;;17.13;;
55776;SDS011;54079;44.540;18.784;2023-12-07T09:41:10;32.63;;;20.92;;
55776;SDS011;54079;44.540;18.784;2023-12-07T09:43:36;35.25;;;22.40;;
55776;SDS011;54079;44.540;18.784;2023-12-07T09:46:02;35.45;;;24.05;;
55776;SDS011;54079;44.540;18.784;2023-12-07T09:48:29;48.10;;;29.98;;
55776;SDS011;54079;44.540;18.784;2023-12-07T09:50:55;39.78;;;26.15;;
55776;SDS011;54079;44.540;18.784;2023-12-07T09:53:22;36.78;;;21.83;;
55776;SDS011;54079;44.540;18.784;2023-12-07T09:55:48;27.45;;;15.98;;
55776;SDS011;54079;44.540;18.784;2023-12-07T09:58:14;38.85;;;23.95;;
55776;SDS011;54079;44.540;18.784;2023-12-07T10:00:39;39.28;;;25.10;;
55776;SDS011;54079;44.540;18.784;2023-12-07T10:03:06;39.83;;;26.25;;
55776;SDS011;54079;44.540;18.784;2023-12-07T10:05:52;29.33;;;20.13;;
55776;SDS011;54079;44.540;18.784;2023-12-07T10:08:26;30.02;;;19.48;;
55776;SDS011;54079;44.540;18.784;2023-12-07T10:11:06;32.38;;;20.80;;
55776;SDS011;54079;44.540;18.784;2023-12-07T10:13:36;48.90;;;30.20;;
55776;SDS011;54079;44.540;18.784;2023-12-07T10:16:06;38.33;;;22.88;;
55776;SDS011;54079;44.540;18.784;2023-12-07T10:18:35;35.08;;;21.33;;
55776;SDS011;54079;44.540;18.784;2023-12-07T10:21:02;40.05;;;25.92;;
55776;SDS011;54079;44.540;18.784;2023-12-07T10:23:29;30.95;;;18.70;;
55776;SDS011;54079;44.540;18.784;2023-12-07T10:25:57;36.88;;;23.52;;
55776;SDS011;54079;44.540;18.784;2023-12-07T10:28:24;27.90;;;16.13;;
55776;SDS011;54079;44.540;18.784;2023-12-07T10:30:51;28.67;;;18.73;;
55776;SDS011;54079;44.540;18.784;2023-12-07T10:33:18;29.98;;;17.90;;
55776;SDS011;54079;44.540;18.784;2023-12-07T10:35:46;34.67;;;22.63;;
55776;SDS011;54079;44.540;18.784;2023-12-07T10:38:13;35.50;;;20.65;;
55776;SDS011;54079;44.540;18.784;2023-12-07T10:40:40;30.52;;;19.63;;
55776;SDS011;54079;44.540;18.784;2023-12-07T10:43:07;35.17;;;21.60;;
55776;SDS011;54079;44.540;18.784;2023-12-07T10:45:34;33.00;;;20.23;;
55776;SDS011;54079;44.540;18.784;2023-12-07T10:48:02;44.72;;;27.08;;
55776;SDS011;54079;44.540;18.784;2023-12-07T10:50:32;37.72;;;25.05;;
55776;SDS011;54079;44.540;18.784;2023-12-07T10:53:19;39.83;;;26.52;;
55776;SDS011;54079;44.540;18.784;2023-12-07T10:55:52;33.67;;;21.13;;
55776;SDS011;54079;44.540;18.784;2023-12-07T10:58:21;30.75;;;21.27;;
55776;SDS011;54079;44.540;18.784;2023-12-07T11:00:51;37.53;;;23.25;;
55776;SDS011;54079;44.540;18.784;2023-12-07T11:03:20;31.98;;;19.40;;
55776;SDS011;54079;44.540;18.784;2023-12-07T11:05:47;33.80;;;20.85;;
55776;SDS011;54079;44.540;18.784;2023-12-07T11:08:20;30.83;;;20.58;;
55776;SDS011;54079;44.540;18.784;2023-12-07T11:11:04;34.30;;;21.83;;
55776;SDS011;54079;44.540;18.784;2023-12-07T11:13:58;34.53;;;20.85;;
55776;SDS011;54079;44.540;18.784;2023-12-07T11:16:31;28.63;;;17.35;;
55776;SDS011;54079;44.540;18.784;2023-12-07T11:18:58;33.78;;;21.08;;
55776;SDS011;54079;44.540;18.784;2023-12-07T11:21:25;28.60;;;18.67;;
55776;SDS011;54079;44.540;18.784;2023-12-07T11:23:52;29.33;;;17.35;;
55776;SDS011;54079;44.540;18.784;2023-12-07T11:26:25;28.15;;;17.48;;
55776;SDS011;54079;44.540;18.784;2023-12-07T11:28:51;25.35;;;16.48;;
55776;SDS011;54079;44.540;18.784;2023-12-07T11:31:20;26.85;;;15.98;;
55776;SDS011;54079;44.540;18.784;2023-12-07T11:33:46;29.80;;;18.55;;
55776;SDS011;54079;44.540;18.784;2023-12-07T11:36:13;30.35;;;17.92;;
55776;SDS011;54079;44.540;18.784;2023-12-07T11:41:34;30.92;;;19.73;;
55776;SDS011;54079;44.540;18.784;2023-12-07T11:44:08;30.38;;;17.67;;
55776;SDS011;54079;44.540;18.784;2023-12-07T11:46:37;28.05;;;18.90;;
55776;SDS011;54079;44.540;18.784;2023-12-07T11:49:03;36.08;;;22.42;;
55776;SDS011;54079;44.540;18.784;2023-12-07T11:51:30;30.85;;;18.55;;
55776;SDS011;54079;44.540;18.784;2023-12-07T11:53:56;25.52;;;17.45;;
55776;SDS011;54079;44.540;18.784;2023-12-07T11:56:22;25.25;;;17.20;;
55776;SDS011;54079;44.540;18.784;2023-12-07T11:58:48;28.23;;;16.67;;
55776;SDS011;54079;44.540;18.784;2023-12-07T12:01:16;28.08;;;18.33;;
55776;SDS011;54079;44.540;18.784;2023-12-07T12:03:42;25.55;;;15.93;;
55776;SDS011;54079;44.540;18.784;2023-12-07T12:06:08;19.75;;;12.13;;
55776;SDS011;54079;44.540;18.784;2023-12-07T12:08:36;12.85;;;7.95;;
55776;SDS011;54079;44.540;18.784;2023-12-07T12:11:03;8.93;;;6.47;;
55776;SDS011;54079;44.540;18.784;2023-12-07T12:13:33;12.20;;;7.60;;
55776;SDS011;54079;44.540;18.784;2023-12-07T12:16:00;10.98;;;6.45;;
55776;SDS011;54079;44.540;18.784;2023-12-07T12:18:26;7.93;;;4.28;;
55776;SDS011;54079;44.540;18.784;2023-12-07T12:20:53;8.60;;;5.65;;
55776;SDS011;54079;44.540;18.784;2023-12-07T12:23:19;7.90;;;4.65;;
55776;SDS011;54079;44.540;18.784;2023-12-07T12:25:46;10.02;;;6.32;;
55776;SDS011;54079;44.540;18.784;2023-12-07T12:28:15;9.18;;;5.30;;
55776;SDS011;54079;44.540;18.784;2023-12-07T12:30:43;5.80;;;3.65;;
55776;SDS011;54079;44.540;18.784;2023-12-07T12:33:09;8.73;;;5.03;;
55776;SDS011;54079;44.540;18.784;2023-12-07T12:35:35;8.13;;;5.30;;
55776;SDS011;54079;44.540;18.784;2023-12-07T12:38:01;6.97;;;3.83;;
55776;SDS011;54079;44.540;18.784;2023-12-07T12:40:29;8.93;;;5.32;;
55776;SDS011;54079;44.540;18.784;2023-12-07T12:42:57;7.60;;;4.38;;
55776;SDS011;54079;44.540;18.784;2023-12-07T12:45:23;10.20;;;5.85;;
55776;SDS011;54079;44.540;18.784;2023-12-07T12:47:49;8.10;;;5.07;;
55776;SDS011;54079;44.540;18.784;2023-12-07T12:53:08;8.63;;;4.65;;
55776;SDS011;54079;44.540;18.784;2023-12-07T12:55:36;11.18;;;7.20;;
55776;SDS011;54079;44.540;18.784;2023-12-07T12:58:04;13.23;;;8.18;;
55776;SDS011;54079;44.540;18.784;2023-12-07T13:00:32;9.80;;;6.25;;
55776;SDS011;54079;44.540;18.784;2023-12-07T13:03:00;10.88;;;7.88;;
55776;SDS011;54079;44.540;18.784;2023-12-07T13:05:27;14.52;;;8.85;;
55776;SDS011;54079;44.540;18.784;2023-12-07T13:07:53;14.45;;;10.13;;
55776;SDS011;54079;44.540;18.784;2023-12-07T13:10:19;12.75;;;6.97;;
55776;SDS011;54079;44.540;18.784;2023-12-07T13:12:46;14.82;;;9.65;;
55776;SDS011;54079;44.540;18.784;2023-12-07T13:15:12;23.88;;;14.90;;
55776;SDS011;54079;44.540;18.784;2023-12-07T13:17:39;9.68;;;5.75;;
55776;SDS011;54079;44.540;18.784;2023-12-07T13:20:08;19.17;;;11.80;;
55776;SDS011;54079;44.540;18.784;2023-12-07T13:22:42;14.98;;;8.93;;
55776;SDS011;54079;44.540;18.784;2023-12-07T13:25:12;14.88;;;8.27;;
55776;SDS011;54079;44.540;18.784;2023-12-07T13:27:39;9.88;;;7.22;;
55776;SDS011;54079;44.540;18.784;2023-12-07T13:30:05;10.00;;;5.88;;
55776;SDS011;54079;44.540;18.784;2023-12-07T13:32:35;12.57;;;8.02;;
55776;SDS011;54079;44.540;18.784;2023-12-07T13:35:05;10.23;;;7.22;;
55776;SDS011;54079;44.540;18.784;2023-12-07T13:37:33;13.90;;;8.48;;
55776;SDS011;54079;44.540;18.784;2023-12-07T13:39:59;14.73;;;9.40;;
55776;SDS011;54079;44.540;18.784;2023-12-07T13:42:25;12.90;;;8.38;;
55776;SDS011;54079;44.540;18.784;2023-12-07T13:44:55;10.90;;;7.78;;
55776;SDS011;54079;44.540;18.784;2023-12-07T13:47:23;6.55;;;4.20;;
55776;SDS011;54079;44.540;18.784;2023-12-07T13:50:01;10.70;;;6.78;;
55776;SDS011;54079;44.540;18.784;2023-12-07T13:52:29;18.75;;;12.55;;
55776;SDS011;54079;44.540;18.784;2023-12-07T13:54:56;13.80;;;9.45;;
55776;SDS011;54079;44.540;18.784;2023-12-07T13:57:23;8.02;;;6.10;;
55776;SDS011;54079;44.540;18.784;2023-12-07T13:59:50;9.80;;;7.45;;
55776;SDS011;54079;44.540;18.784;2023-12-07T14:02:16;13.45;;;8.40;;
55776;SDS011;54079;44.540;18.784;2023-12-07T14:04:43;12.00;;;7.72;;
55776;SDS011;54079;44.540;18.784;2023-12-07T14:07:14;12.20;;;8.70;;
55776;SDS011;54079;44.540;18.784;2023-12-07T14:09:42;14.88;;;9.10;;
55776;SDS011;54079;44.540;18.784;2023-12-07T14:12:09;13.25;;;8.70;;
55776;SDS011;54079;44.540;18.784;2023-12-07T14:14:40;14.93;;;10.45;;
55776;SDS011;54079;44.540;18.784;2023-12-07T14:17:06;14.55;;;9.25;;
55776;SDS011;54079;44.540;18.784;2023-12-07T14:19:32;16.05;;;10.73;;